sensor_id;sensor_type;location;lat;lon;timestamp;temperature;humidity
64209;DHT22;50527;52.414;13.226;2024-01-30T00:00:42;1.80;93.80
64209;DHT22;50527;52.414;13.226;2024-01-30T00:03:07;1.80;93.80
64209;DHT22;50527;52.414;13.226;2024-01-30T00:05:32;1.80;94.00
64209;DHT22;50527;52.414;13.226;2024-01-30T00:07:58;1.80;94.00
64209;DHT22;50527;52.414;13.226;2024-01-30T00:10:23;1.70;93.50
64209;DHT22;50527;52.414;13.226;2024-01-30T00:12:49;1.70;93.80
64209;DHT22;50527;52.414;13.226;2024-01-30T00:15:14;1.80;94.00
64209;DHT22;50527;52.414;13.226;2024-01-30T00:17:40;1.70;93.60
64209;DHT22;50527;52.414;13.226;2024-01-30T00:20:06;1.70;93.50
64209;DHT22;50527;52.414;13.226;2024-01-30T00:22:32;1.70;93.80
64209;DHT22;50527;52.414;13.226;2024-01-30T00:24:58;1.70;93.70
64209;DHT22;50527;52.414;13.226;2024-01-30T00:27:23;1.70;93.80
64209;DHT22;50527;52.414;13.226;2024-01-30T00:29:49;1.60;93.80
64209;DHT22;50527;52.414;13.226;2024-01-30T00:32:14;1.60;94.30
64209;DHT22;50527;52.414;13.226;2024-01-30T00:34:41;1.70;94.80
64209;DHT22;50527;52.414;13.226;2024-01-30T00:37:06;1.70;94.90
64209;DHT22;50527;52.414;13.226;2024-01-30T00:39:32;1.70;94.70
64209;DHT22;50527;52.414;13.226;2024-01-30T00:41:58;1.70;94.60
64209;DHT22;50527;52.414;13.226;2024-01-30T00:44:23;1.70;94.60
64209;DHT22;50527;52.414;13.226;2024-01-30T00:46:49;1.80;94.60
64209;DHT22;50527;52.414;13.226;2024-01-30T00:49:14;1.80;94.10
64209;DHT22;50527;52.414;13.226;2024-01-30T00:51:40;1.70;93.60
64209;DHT22;50527;52.414;13.226;2024-01-30T00:54:05;1.70;93.90
64209;DHT22;50527;52.414;13.226;2024-01-30T00:56:31;1.60;93.80
64209;DHT22;50527;52.414;13.226;2024-01-30T00:58:57;1.60;94.30
64209;DHT22;50527;52.414;13.226;2024-01-30T01:01:22;1.50;94.40
64209;DHT22;50527;52.414;13.226;2024-01-30T01:03:48;1.50;94.40
64209;DHT22;50527;52.414;13.226;2024-01-30T01:06:13;1.50;94.30
64209;DHT22;50527;52.414;13.226;2024-01-30T01:08:39;1.50;94.60
64209;DHT22;50527;52.414;13.226;2024-01-30T01:11:05;1.50;94.90
64209;DHT22;50527;52.414;13.226;2024-01-30T01:13:30;1.50;94.60
64209;DHT22;50527;52.414;13.226;2024-01-30T01:15:56;1.50;94.20
64209;DHT22;50527;52.414;13.226;2024-01-30T01:18:21;1.50;94.40
64209;DHT22;50527;52.414;13.226;2024-01-30T01:20:47;1.50;94.80
64209;DHT22;50527;52.414;13.226;2024-01-30T01:23:12;1.50;95.10
64209;DHT22;50527;52.414;13.226;2024-01-30T01:25:38;1.50;94.90
64209;DHT22;50527;52.414;13.226;2024-01-30T01:28:03;1.50;95.00
64209;DHT22;50527;52.414;13.226;2024-01-30T01:30:29;1.50;94.60
64209;DHT22;50527;52.414;13.226;2024-01-30T01:32:55;1.50;94.90
64209;DHT22;50527;52.414;13.226;2024-01-30T01:35:24;1.50;95.00
64209;DHT22;50527;52.414;13.226;2024-01-30T01:37:51;1.50;94.80
64209;DHT22;50527;52.414;13.226;2024-01-30T01:40:25;1.50;95.20
64209;DHT22;50527;52.414;13.226;2024-01-30T01:42:51;1.50;95.20
64209;DHT22;50527;52.414;13.226;2024-01-30T01:45:18;1.40;95.10
64209;DHT22;50527;52.414;13.226;2024-01-30T01:47:44;1.50;95.50
64209;DHT22;50527;52.414;13.226;2024-01-30T01:50:12;1.40;95.20
64209;DHT22;50527;52.414;13.226;2024-01-30T01:52:40;1.40;95.30
64209;DHT22;50527;52.414;13.226;2024-01-30T01:55:07;1.40;95.80
64209;DHT22;50527;52.414;13.226;2024-01-30T01:57:33;1.40;95.30
64209;DHT22;50527;52.414;13.226;2024-01-30T02:00:00;1.40;95.50
64209;DHT22;50527;52.414;13.226;2024-01-30T02:02:26;1.40;95.20
64209;DHT22;50527;52.414;13.226;2024-01-30T02:04:54;1.40;95.10
64209;DHT22;50527;52.414;13.226;2024-01-30T02:07:20;1.40;95.70
64209;DHT22;50527;52.414;13.226;2024-01-30T02:09:45;1.40;95.60
64209;DHT22;50527;52.414;13.226;2024-01-30T02:12:11;1.30;95.40
64209;DHT22;50527;52.414;13.226;2024-01-30T02:14:46;1.30;95.10
64209;DHT22;50527;52.414;13.226;2024-01-30T02:17:13;1.30;95.50
64209;DHT22;50527;52.414;13.226;2024-01-30T02:19:39;1.30;95.50
64209;DHT22;50527;52.414;13.226;2024-01-30T02:22:04;1.30;95.60
64209;DHT22;50527;52.414;13.226;2024-01-30T02:24:30;1.30;95.70
64209;DHT22;50527;52.414;13.226;2024-01-30T02:26:56;1.30;95.70
64209;DHT22;50527;52.414;13.226;2024-01-30T02:29:21;1.30;95.50
64209;DHT22;50527;52.414;13.226;2024-01-30T02:31:47;1.30;95.50
64209;DHT22;50527;52.414;13.226;2024-01-30T02:34:13;1.40;96.10
64209;DHT22;50527;52.414;13.226;2024-01-30T02:36:42;1.40;96.20
64209;DHT22;50527;52.414;13.226;2024-01-30T02:39:07;1.40;96.20
64209;DHT22;50527;52.414;13.226;2024-01-30T02:41:33;1.40;95.50
64209;DHT22;50527;52.414;13.226;2024-01-30T02:43:59;1.40;95.60
64209;DHT22;50527;52.414;13.226;2024-01-30T02:46:24;1.40;95.80
64209;DHT22;50527;52.414;13.226;2024-01-30T02:48:50;1.40;95.90
64209;DHT22;50527;52.414;13.226;2024-01-30T02:51:16;1.40;95.90
64209;DHT22;50527;52.414;13.226;2024-01-30T02:53:41;1.40;95.80
64209;DHT22;50527;52.414;13.226;2024-01-30T02:56:07;1.40;96.00
64209;DHT22;50527;52.414;13.226;2024-01-30T02:58:38;1.40;96.10
64209;DHT22;50527;52.414;13.226;2024-01-30T03:01:04;1.40;96.00
64209;DHT22;50527;52.414;13.226;2024-01-30T03:03:29;1.40;95.90
64209;DHT22;50527;52.414;13.226;2024-01-30T03:05:55;1.40;96.00
64209;DHT22;50527;52.414;13.226;2024-01-30T03:08:20;1.40;95.90
64209;DHT22;50527;52.414;13.226;2024-01-30T03:10:46;1.40;96.20
64209;DHT22;50527;52.414;13.226;2024-01-30T03:13:11;1.40;95.80
64209;DHT22;50527;52.414;13.226;2024-01-30T03:15:37;1.40;95.60
64209;DHT22;50527;52.414;13.226;2024-01-30T03:18:03;1.40;95.60
64209;DHT22;50527;52.414;13.226;2024-01-30T03:20:31;1.30;95.60
64209;DHT22;50527;52.414;13.226;2024-01-30T03:22:59;1.30;95.70
64209;DHT22;50527;52.414;13.226;2024-01-30T03:25:24;1.30;95.80
64209;DHT22;50527;52.414;13.226;2024-01-30T03:27:50;1.30;95.80
64209;DHT22;50527;52.414;13.226;2024-01-30T03:30:15;1.30;96.00
64209;DHT22;50527;52.414;13.226;2024-01-30T03:32:41;1.30;96.20
64209;DHT22;50527;52.414;13.226;2024-01-30T03:35:07;1.30;96.50
64209;DHT22;50527;52.414;13.226;2024-01-30T03:37:32;1.30;95.90
64209;DHT22;50527;52.414;13.226;2024-01-30T03:39:57;1.30;96.40
64209;DHT22;50527;52.414;13.226;2024-01-30T03:42:23;1.30;96.50
64209;DHT22;50527;52.414;13.226;2024-01-30T03:44:48;1.30;95.90
64209;DHT22;50527;52.414;13.226;2024-01-30T03:47:17;1.30;96.00
64209;DHT22;50527;52.414;13.226;2024-01-30T03:49:42;1.30;95.90
64209;DHT22;50527;52.414;13.226;2024-01-30T03:52:08;1.30;95.80
64209;DHT22;50527;52.414;13.226;2024-01-30T03:54:33;1.20;95.60
64209;DHT22;50527;52.414;13.226;2024-01-30T03:56:59;1.20;95.80
64209;DHT22;50527;52.414;13.226;2024-01-30T03:59:24;1.20;95.80
64209;DHT22;50527;52.414;13.226;2024-01-30T04:01:50;1.20;96.20
64209;DHT22;50527;52.414;13.226;2024-01-30T04:04:20;1.20;96.40
64209;DHT22;50527;52.414;13.226;2024-01-30T04:06:46;1.20;96.30
64209;DHT22;50527;52.414;13.226;2024-01-30T04:09:12;1.20;96.30
64209;DHT22;50527;52.414;13.226;2024-01-30T04:11:39;1.20;96.20
64209;DHT22;50527;52.414;13.226;2024-01-30T04:14:04;1.20;96.10
64209;DHT22;50527;52.414;13.226;2024-01-30T04:16:30;1.20;96.10
64209;DHT22;50527;52.414;13.226;2024-01-30T04:18:56;1.20;96.00
64209;DHT22;50527;52.414;13.226;2024-01-30T04:21:22;1.20;96.10
64209;DHT22;50527;52.414;13.226;2024-01-30T04:23:48;1.20;96.50
64209;DHT22;50527;52.414;13.226;2024-01-30T04:26:14;1.20;96.20
64209;DHT22;50527;52.414;13.226;2024-01-30T04:28:41;1.20;96.80
64209;DHT22;50527;52.414;13.226;2024-01-30T04:31:07;1.20;97.20
64209;DHT22;50527;52.414;13.226;2024-01-30T04:33:32;1.30;97.20
64209;DHT22;50527;52.414;13.226;2024-01-30T04:35:58;1.30;97.20
64209;DHT22;50527;52.414;13.226;2024-01-30T04:38:23;1.30;97.30
64209;DHT22;50527;52.414;13.226;2024-01-30T04:40:49;1.30;96.80
64209;DHT22;50527;52.414;13.226;2024-01-30T04:43:14;1.30;96.40
64209;DHT22;50527;52.414;13.226;2024-01-30T04:45:41;1.30;96.60
64209;DHT22;50527;52.414;13.226;2024-01-30T04:48:06;1.30;96.40
64209;DHT22;50527;52.414;13.226;2024-01-30T04:50:32;1.30;96.50
64209;DHT22;50527;52.414;13.226;2024-01-30T04:52:57;1.30;96.70
64209;DHT22;50527;52.414;13.226;2024-01-30T04:55:23;1.20;96.10
64209;DHT22;50527;52.414;13.226;2024-01-30T04:57:48;1.20;96.10
64209;DHT22;50527;52.414;13.226;2024-01-30T05:00:14;1.20;96.50
64209;DHT22;50527;52.414;13.226;2024-01-30T05:02:40;1.20;96.60
64209;DHT22;50527;52.414;13.226;2024-01-30T05:05:05;1.10;96.40
64209;DHT22;50527;52.414;13.226;2024-01-30T05:07:31;1.10;96.40
64209;DHT22;50527;52.414;13.226;2024-01-30T05:09:56;1.10;96.40
64209;DHT22;50527;52.414;13.226;2024-01-30T05:12:22;1.10;96.80
64209;DHT22;50527;52.414;13.226;2024-01-30T05:14:47;1.10;96.60
64209;DHT22;50527;52.414;13.226;2024-01-30T05:17:13;1.20;96.40
64209;DHT22;50527;52.414;13.226;2024-01-30T05:19:39;1.10;96.20
64209;DHT22;50527;52.414;13.226;2024-01-30T05:22:04;1.10;96.30
64209;DHT22;50527;52.414;13.226;2024-01-30T05:24:30;1.20;96.70
64209;DHT22;50527;52.414;13.226;2024-01-30T05:26:55;1.10;96.70
64209;DHT22;50527;52.414;13.226;2024-01-30T05:29:20;1.00;96.40
64209;DHT22;50527;52.414;13.226;2024-01-30T05:31:46;1.00;97.00
64209;DHT22;50527;52.414;13.226;2024-01-30T05:34:11;1.10;97.60
64209;DHT22;50527;52.414;13.226;2024-01-30T05:36:37;1.10;97.50
64209;DHT22;50527;52.414;13.226;2024-01-30T05:39:02;1.00;97.30
64209;DHT22;50527;52.414;13.226;2024-01-30T05:41:28;1.10;97.20
64209;DHT22;50527;52.414;13.226;2024-01-30T05:43:53;1.10;97.20
64209;DHT22;50527;52.414;13.226;2024-01-30T05:46:19;1.10;97.00
64209;DHT22;50527;52.414;13.226;2024-01-30T05:48:44;1.10;97.00
64209;DHT22;50527;52.414;13.226;2024-01-30T05:51:10;1.10;97.00
64209;DHT22;50527;52.414;13.226;2024-01-30T05:53:35;1.10;96.90
64209;DHT22;50527;52.414;13.226;2024-01-30T05:56:04;1.00;96.40
64209;DHT22;50527;52.414;13.226;2024-01-30T05:58:30;1.00;96.80
64209;DHT22;50527;52.414;13.226;2024-01-30T06:00:56;1.00;97.10
64209;DHT22;50527;52.414;13.226;2024-01-30T06:03:22;1.00;97.20
64209;DHT22;50527;52.414;13.226;2024-01-30T06:05:48;1.10;97.00
64209;DHT22;50527;52.414;13.226;2024-01-30T06:08:13;1.00;96.70
64209;DHT22;50527;52.414;13.226;2024-01-30T06:10:39;1.10;96.90
64209;DHT22;50527;52.414;13.226;2024-01-30T06:13:04;1.00;96.80
64209;DHT22;50527;52.414;13.226;2024-01-30T06:15:30;1.00;97.00
64209;DHT22;50527;52.414;13.226;2024-01-30T06:17:55;1.10;97.50
64209;DHT22;50527;52.414;13.226;2024-01-30T06:20:21;1.10;97.70
64209;DHT22;50527;52.414;13.226;2024-01-30T06:22:46;1.10;97.30
64209;DHT22;50527;52.414;13.226;2024-01-30T06:25:12;1.10;97.50
64209;DHT22;50527;52.414;13.226;2024-01-30T06:27:37;1.10;97.20
64209;DHT22;50527;52.414;13.226;2024-01-30T06:30:04;1.10;97.40
64209;DHT22;50527;52.414;13.226;2024-01-30T06:32:30;1.10;97.40
64209;DHT22;50527;52.414;13.226;2024-01-30T06:35:00;1.10;97.20
64209;DHT22;50527;52.414;13.226;2024-01-30T06:37:25;1.10;97.10
64209;DHT22;50527;52.414;13.226;2024-01-30T06:39:51;1.10;97.30
64209;DHT22;50527;52.414;13.226;2024-01-30T06:42:17;1.10;97.20
64209;DHT22;50527;52.414;13.226;2024-01-30T06:44:43;1.10;97.90
64209;DHT22;50527;52.414;13.226;2024-01-30T06:47:10;1.10;98.10
64209;DHT22;50527;52.414;13.226;2024-01-30T06:49:35;1.10;98.30
64209;DHT22;50527;52.414;13.226;2024-01-30T06:52:05;1.20;98.30
64209;DHT22;50527;52.414;13.226;2024-01-30T06:54:30;1.10;98.20
64209;DHT22;50527;52.414;13.226;2024-01-30T06:56:56;1.20;98.20
64209;DHT22;50527;52.414;13.226;2024-01-30T06:59:21;1.20;98.00
64209;DHT22;50527;52.414;13.226;2024-01-30T07:01:47;1.20;98.00
64209;DHT22;50527;52.414;13.226;2024-01-30T07:04:12;1.20;97.80
64209;DHT22;50527;52.414;13.226;2024-01-30T07:06:38;1.20;97.50
64209;DHT22;50527;52.414;13.226;2024-01-30T07:09:03;1.20;97.70
64209;DHT22;50527;52.414;13.226;2024-01-30T07:11:30;1.20;97.90
64209;DHT22;50527;52.414;13.226;2024-01-30T07:13:56;1.30;97.90
64209;DHT22;50527;52.414;13.226;2024-01-30T07:16:21;1.30;97.90
64209;DHT22;50527;52.414;13.226;2024-01-30T07:18:48;1.40;97.80
64209;DHT22;50527;52.414;13.226;2024-01-30T07:21:13;1.30;97.60
64209;DHT22;50527;52.414;13.226;2024-01-30T07:23:39;1.30;98.00
64209;DHT22;50527;52.414;13.226;2024-01-30T07:26:05;1.40;98.00
64209;DHT22;50527;52.414;13.226;2024-01-30T07:28:32;1.40;97.80
64209;DHT22;50527;52.414;13.226;2024-01-30T07:30:57;1.50;98.00
64209;DHT22;50527;52.414;13.226;2024-01-30T07:33:23;1.50;98.30
64209;DHT22;50527;52.414;13.226;2024-01-30T07:35:48;1.60;97.80
64209;DHT22;50527;52.414;13.226;2024-01-30T07:38:14;1.60;97.30
64209;DHT22;50527;52.414;13.226;2024-01-30T07:40:39;1.70;97.70
64209;DHT22;50527;52.414;13.226;2024-01-30T07:43:06;1.70;97.40
64209;DHT22;50527;52.414;13.226;2024-01-30T07:45:31;1.80;97.60
64209;DHT22;50527;52.414;13.226;2024-01-30T07:47:58;1.80;97.20
64209;DHT22;50527;52.414;13.226;2024-01-30T07:50:25;1.80;97.20
64209;DHT22;50527;52.414;13.226;2024-01-30T07:52:50;1.90;96.80
64209;DHT22;50527;52.414;13.226;2024-01-30T07:55:23;1.90;97.20
64209;DHT22;50527;52.414;13.226;2024-01-30T07:57:52;2.00;97.20
64209;DHT22;50527;52.414;13.226;2024-01-30T08:00:21;2.00;96.60
64209;DHT22;50527;52.414;13.226;2024-01-30T08:02:47;2.10;97.00
64209;DHT22;50527;52.414;13.226;2024-01-30T08:05:12;2.10;97.00
64209;DHT22;50527;52.414;13.226;2024-01-30T08:07:43;2.20;96.60
64209;DHT22;50527;52.414;13.226;2024-01-30T08:10:10;2.30;96.60
64209;DHT22;50527;52.414;13.226;2024-01-30T08:12:36;2.40;96.70
64209;DHT22;50527;52.414;13.226;2024-01-30T08:15:02;2.40;96.20
64209;DHT22;50527;52.414;13.226;2024-01-30T08:17:28;2.50;96.50
64209;DHT22;50527;52.414;13.226;2024-01-30T08:19:54;2.60;96.40
64209;DHT22;50527;52.414;13.226;2024-01-30T08:22:19;2.70;96.60
64209;DHT22;50527;52.414;13.226;2024-01-30T08:24:45;2.70;96.20
64209;DHT22;50527;52.414;13.226;2024-01-30T08:27:10;2.80;96.30
64209;DHT22;50527;52.414;13.226;2024-01-30T08:29:37;3.00;96.20
64209;DHT22;50527;52.414;13.226;2024-01-30T08:32:03;3.10;95.60
64209;DHT22;50527;52.414;13.226;2024-01-30T08:34:29;3.20;95.00
64209;DHT22;50527;52.414;13.226;2024-01-30T08:36:54;3.30;94.70
64209;DHT22;50527;52.414;13.226;2024-01-30T08:39:20;3.40;94.20
64209;DHT22;50527;52.414;13.226;2024-01-30T08:41:45;3.50;94.30
64209;DHT22;50527;52.414;13.226;2024-01-30T08:44:11;3.50;94.30
64209;DHT22;50527;52.414;13.226;2024-01-30T08:46:36;3.60;93.90
64209;DHT22;50527;52.414;13.226;2024-01-30T08:49:02;3.70;94.10
64209;DHT22;50527;52.414;13.226;2024-01-30T08:51:29;3.80;93.90
64209;DHT22;50527;52.414;13.226;2024-01-30T08:53:55;3.80;94.00
64209;DHT22;50527;52.414;13.226;2024-01-30T08:56:20;3.90;93.40
64209;DHT22;50527;52.414;13.226;2024-01-30T08:58:45;4.00;93.10
64209;DHT22;50527;52.414;13.226;2024-01-30T09:01:11;4.00;92.70
64209;DHT22;50527;52.414;13.226;2024-01-30T09:03:36;4.10;92.80
64209;DHT22;50527;52.414;13.226;2024-01-30T09:06:11;4.20;93.00
64209;DHT22;50527;52.414;13.226;2024-01-30T09:08:37;4.30;92.60
64209;DHT22;50527;52.414;13.226;2024-01-30T09:11:11;4.40;92.80
64209;DHT22;50527;52.414;13.226;2024-01-30T09:13:36;4.40;92.70
64209;DHT22;50527;52.414;13.226;2024-01-30T09:16:02;4.60;92.30
64209;DHT22;50527;52.414;13.226;2024-01-30T09:18:28;4.70;92.20
64209;DHT22;50527;52.414;13.226;2024-01-30T09:20:53;4.90;91.60
64209;DHT22;50527;52.414;13.226;2024-01-30T09:23:19;5.00;91.40
64209;DHT22;50527;52.414;13.226;2024-01-30T09:25:45;5.00;90.80
64209;DHT22;50527;52.414;13.226;2024-01-30T09:28:10;5.00;90.60
64209;DHT22;50527;52.414;13.226;2024-01-30T09:30:36;5.10;91.10
64209;DHT22;50527;52.414;13.226;2024-01-30T09:33:01;5.10;90.90
64209;DHT22;50527;52.414;13.226;2024-01-30T09:35:27;5.20;89.80
64209;DHT22;50527;52.414;13.226;2024-01-30T09:37:52;5.30;90.60
64209;DHT22;50527;52.414;13.226;2024-01-30T09:40:18;5.40;90.50
64209;DHT22;50527;52.414;13.226;2024-01-30T09:42:46;5.50;88.70
64209;DHT22;50527;52.414;13.226;2024-01-30T09:45:14;5.80;89.60
64209;DHT22;50527;52.414;13.226;2024-01-30T09:47:43;6.10;87.00
64209;DHT22;50527;52.414;13.226;2024-01-30T09:50:13;6.20;84.90
64209;DHT22;50527;52.414;13.226;2024-01-30T09:52:39;6.30;85.50
64209;DHT22;50527;52.414;13.226;2024-01-30T09:55:06;6.30;86.30
64209;DHT22;50527;52.414;13.226;2024-01-30T09:57:34;6.50;82.50
64209;DHT22;50527;52.414;13.226;2024-01-30T09:59:59;6.50;84.00
64209;DHT22;50527;52.414;13.226;2024-01-30T10:02:25;6.50;82.50
64209;DHT22;50527;52.414;13.226;2024-01-30T10:04:51;6.50;84.70
64209;DHT22;50527;52.414;13.226;2024-01-30T10:07:18;6.50;84.10
64209;DHT22;50527;52.414;13.226;2024-01-30T10:09:43;6.50;82.90
64209;DHT22;50527;52.414;13.226;2024-01-30T10:12:09;6.60;82.80
64209;DHT22;50527;52.414;13.226;2024-01-30T10:14:38;6.70;80.20
64209;DHT22;50527;52.414;13.226;2024-01-30T10:17:04;6.70;79.90
64209;DHT22;50527;52.414;13.226;2024-01-30T10:19:31;6.60;80.70
64209;DHT22;50527;52.414;13.226;2024-01-30T10:21:56;6.70;79.60
64209;DHT22;50527;52.414;13.226;2024-01-30T10:24:25;6.70;81.30
64209;DHT22;50527;52.414;13.226;2024-01-30T10:26:51;6.70;78.80
64209;DHT22;50527;52.414;13.226;2024-01-30T10:29:17;6.70;78.00
64209;DHT22;50527;52.414;13.226;2024-01-30T10:31:42;6.80;78.00
64209;DHT22;50527;52.414;13.226;2024-01-30T10:34:08;6.90;75.70
64209;DHT22;50527;52.414;13.226;2024-01-30T10:36:39;6.90;76.80
64209;DHT22;50527;52.414;13.226;2024-01-30T10:39:06;6.90;75.40
64209;DHT22;50527;52.414;13.226;2024-01-30T10:41:40;6.90;75.30
64209;DHT22;50527;52.414;13.226;2024-01-30T10:44:11;7.00;74.40
64209;DHT22;50527;52.414;13.226;2024-01-30T10:46:42;7.10;73.10
64209;DHT22;50527;52.414;13.226;2024-01-30T10:49:11;7.10;73.30
64209;DHT22;50527;52.414;13.226;2024-01-30T10:51:38;7.10;74.90
64209;DHT22;50527;52.414;13.226;2024-01-30T10:54:05;7.20;74.50
64209;DHT22;50527;52.414;13.226;2024-01-30T10:56:32;7.20;73.10
64209;DHT22;50527;52.414;13.226;2024-01-30T10:58:59;7.10;74.10
64209;DHT22;50527;52.414;13.226;2024-01-30T11:01:25;7.20;72.50
64209;DHT22;50527;52.414;13.226;2024-01-30T11:03:52;7.20;74.20
64209;DHT22;50527;52.414;13.226;2024-01-30T11:06:22;7.20;73.50
64209;DHT22;50527;52.414;13.226;2024-01-30T11:09:03;7.20;74.10
64209;DHT22;50527;52.414;13.226;2024-01-30T11:11:29;7.10;73.40
64209;DHT22;50527;52.414;13.226;2024-01-30T11:13:55;7.20;73.60
64209;DHT22;50527;52.414;13.226;2024-01-30T11:16:20;7.20;73.20
64209;DHT22;50527;52.414;13.226;2024-01-30T11:18:50;7.30;72.20
64209;DHT22;50527;52.414;13.226;2024-01-30T11:21:16;7.30;73.40
64209;DHT22;50527;52.414;13.226;2024-01-30T11:23:42;7.30;74.20
64209;DHT22;50527;52.414;13.226;2024-01-30T11:26:10;7.40;73.40
64209;DHT22;50527;52.414;13.226;2024-01-30T11:28:37;7.40;74.20
64209;DHT22;50527;52.414;13.226;2024-01-30T11:31:06;7.40;72.20
64209;DHT22;50527;52.414;13.226;2024-01-30T11:33:32;7.50;73.20
64209;DHT22;50527;52.414;13.226;2024-01-30T11:35:59;7.50;72.20
64209;DHT22;50527;52.414;13.226;2024-01-30T11:38:26;7.60;72.30
64209;DHT22;50527;52.414;13.226;2024-01-30T11:40:55;7.60;72.60
64209;DHT22;50527;52.414;13.226;2024-01-30T11:43:24;7.70;72.50
64209;DHT22;50527;52.414;13.226;2024-01-30T11:45:50;7.70;72.00
64209;DHT22;50527;52.414;13.226;2024-01-30T11:48:16;7.80;71.70
64209;DHT22;50527;52.414;13.226;2024-01-30T11:50:43;7.80;71.50
64209;DHT22;50527;52.414;13.226;2024-01-30T11:53:10;7.80;71.40
64209;DHT22;50527;52.414;13.226;2024-01-30T11:55:35;7.80;71.00
64209;DHT22;50527;52.414;13.226;2024-01-30T11:58:03;7.80;70.90
64209;DHT22;50527;52.414;13.226;2024-01-30T12:00:29;7.80;71.90
64209;DHT22;50527;52.414;13.226;2024-01-30T12:02:56;7.90;73.00
64209;DHT22;50527;52.414;13.226;2024-01-30T12:05:22;7.90;72.70
64209;DHT22;50527;52.414;13.226;2024-01-30T12:07:48;8.00;72.40
64209;DHT22;50527;52.414;13.226;2024-01-30T12:10:14;8.00;71.90
64209;DHT22;50527;52.414;13.226;2024-01-30T12:12:41;8.00;71.80
64209;DHT22;50527;52.414;13.226;2024-01-30T12:15:08;8.10;72.50
64209;DHT22;50527;52.414;13.226;2024-01-30T12:17:34;8.10;72.00
64209;DHT22;50527;52.414;13.226;2024-01-30T12:20:06;8.10;71.10
64209;DHT22;50527;52.414;13.226;2024-01-30T12:22:36;8.10;72.10
64209;DHT22;50527;52.414;13.226;2024-01-30T12:25:04;8.20;71.60
64209;DHT22;50527;52.414;13.226;2024-01-30T12:27:29;8.10;71.80
64209;DHT22;50527;52.414;13.226;2024-01-30T12:29:58;8.20;71.10
64209;DHT22;50527;52.414;13.226;2024-01-30T12:32:23;8.20;71.50
64209;DHT22;50527;52.414;13.226;2024-01-30T12:34:49;8.20;72.00
64209;DHT22;50527;52.414;13.226;2024-01-30T12:37:15;8.20;72.30
64209;DHT22;50527;52.414;13.226;2024-01-30T12:39:45;8.20;72.60
64209;DHT22;50527;52.414;13.226;2024-01-30T12:42:11;8.20;71.70
64209;DHT22;50527;52.414;13.226;2024-01-30T12:44:36;8.30;73.10
64209;DHT22;50527;52.414;13.226;2024-01-30T12:47:05;8.30;72.90
64209;DHT22;50527;52.414;13.226;2024-01-30T12:49:30;8.40;71.80
64209;DHT22;50527;52.414;13.226;2024-01-30T12:51:56;8.40;72.00
64209;DHT22;50527;52.414;13.226;2024-01-30T12:54:23;8.40;71.70
64209;DHT22;50527;52.414;13.226;2024-01-30T12:56:48;8.40;72.10
64209;DHT22;50527;52.414;13.226;2024-01-30T12:59:14;8.30;72.70
64209;DHT22;50527;52.414;13.226;2024-01-30T13:01:39;8.30;73.10
64209;DHT22;50527;52.414;13.226;2024-01-30T13:04:05;8.40;72.60
64209;DHT22;50527;52.414;13.226;2024-01-30T13:06:30;8.40;72.70
64209;DHT22;50527;52.414;13.226;2024-01-30T13:08:56;8.40;72.90
64209;DHT22;50527;52.414;13.226;2024-01-30T13:11:21;8.30;73.60
64209;DHT22;50527;52.414;13.226;2024-01-30T13:13:47;8.40;73.60
64209;DHT22;50527;52.414;13.226;2024-01-30T13:16:12;8.40;73.40
64209;DHT22;50527;52.414;13.226;2024-01-30T13:18:38;8.40;73.10
64209;DHT22;50527;52.414;13.226;2024-01-30T13:21:03;8.40;74.20
64209;DHT22;50527;52.414;13.226;2024-01-30T13:23:29;8.50;74.10
64209;DHT22;50527;52.414;13.226;2024-01-30T13:25:54;8.50;73.70
64209;DHT22;50527;52.414;13.226;2024-01-30T13:28:23;8.50;73.60
64209;DHT22;50527;52.414;13.226;2024-01-30T13:30:49;8.60;73.70
64209;DHT22;50527;52.414;13.226;2024-01-30T13:33:14;8.60;74.00
64209;DHT22;50527;52.414;13.226;2024-01-30T13:35:39;8.60;74.20
64209;DHT22;50527;52.414;13.226;2024-01-30T13:38:05;8.60;73.60
64209;DHT22;50527;52.414;13.226;2024-01-30T13:40:30;8.70;73.20
64209;DHT22;50527;52.414;13.226;2024-01-30T13:42:56;8.70;73.40
64209;DHT22;50527;52.414;13.226;2024-01-30T13:45:21;8.60;73.30
64209;DHT22;50527;52.414;13.226;2024-01-30T13:47:47;8.60;73.90
64209;DHT22;50527;52.414;13.226;2024-01-30T13:50:12;8.60;73.40
64209;DHT22;50527;52.414;13.226;2024-01-30T13:52:40;8.60;74.30
64209;DHT22;50527;52.414;13.226;2024-01-30T13:55:06;8.60;74.30
64209;DHT22;50527;52.414;13.226;2024-01-30T13:57:32;8.70;74.10
64209;DHT22;50527;52.414;13.226;2024-01-30T14:00:00;8.70;74.00
64209;DHT22;50527;52.414;13.226;2024-01-30T14:02:26;8.60;74.00
64209;DHT22;50527;52.414;13.226;2024-01-30T14:04:51;8.60;74.20
64209;DHT22;50527;52.414;13.226;2024-01-30T14:07:16;8.70;74.20
64209;DHT22;50527;52.414;13.226;2024-01-30T14:09:44;8.60;74.80
64209;DHT22;50527;52.414;13.226;2024-01-30T14:12:09;8.60;74.40
64209;DHT22;50527;52.414;13.226;2024-01-30T14:14:35;8.60;74.90
64209;DHT22;50527;52.414;13.226;2024-01-30T14:17:01;8.60;75.90
64209;DHT22;50527;52.414;13.226;2024-01-30T14:19:26;8.60;76.90
64209;DHT22;50527;52.414;13.226;2024-01-30T14:21:52;8.50;77.70
64209;DHT22;50527;52.414;13.226;2024-01-30T14:24:18;8.50;76.60
64209;DHT22;50527;52.414;13.226;2024-01-30T14:26:43;8.60;76.20
64209;DHT22;50527;52.414;13.226;2024-01-30T14:29:09;8.60;77.90
64209;DHT22;50527;52.414;13.226;2024-01-30T14:31:35;8.50;78.30
64209;DHT22;50527;52.414;13.226;2024-01-30T14:34:00;8.60;77.20
64209;DHT22;50527;52.414;13.226;2024-01-30T14:36:26;8.50;77.10
64209;DHT22;50527;52.414;13.226;2024-01-30T14:38:54;8.40;78.30
64209;DHT22;50527;52.414;13.226;2024-01-30T14:41:20;8.50;79.60
64209;DHT22;50527;52.414;13.226;2024-01-30T14:43:45;8.40;78.80
64209;DHT22;50527;52.414;13.226;2024-01-30T14:46:11;8.40;81.10
64209;DHT22;50527;52.414;13.226;2024-01-30T14:48:37;8.30;80.90
64209;DHT22;50527;52.414;13.226;2024-01-30T14:51:02;8.30;80.80
64209;DHT22;50527;52.414;13.226;2024-01-30T14:53:28;8.30;80.90
64209;DHT22;50527;52.414;13.226;2024-01-30T14:55:53;8.20;82.10
64209;DHT22;50527;52.414;13.226;2024-01-30T14:58:19;8.10;83.90
64209;DHT22;50527;52.414;13.226;2024-01-30T15:00:44;8.10;84.30
64209;DHT22;50527;52.414;13.226;2024-01-30T15:03:10;8.00;83.90
64209;DHT22;50527;52.414;13.226;2024-01-30T15:05:35;8.00;84.10
64209;DHT22;50527;52.414;13.226;2024-01-30T15:08:01;7.90;85.00
64209;DHT22;50527;52.414;13.226;2024-01-30T15:10:27;7.80;84.50
64209;DHT22;50527;52.414;13.226;2024-01-30T15:12:52;7.80;85.30
64209;DHT22;50527;52.414;13.226;2024-01-30T15:15:17;7.80;84.90
64209;DHT22;50527;52.414;13.226;2024-01-30T15:17:43;7.80;86.10
64209;DHT22;50527;52.414;13.226;2024-01-30T15:20:09;7.70;86.70
64209;DHT22;50527;52.414;13.226;2024-01-30T15:22:35;7.70;85.10